sensor_id;sensor_type;location;lat;lon;timestamp;P1;durP1;ratioP1;P2;durP2;ratioP2
8857;SDS011;4465;50.904;4.696;2022-08-01T00:01:29;3.80;;;2.00;;
8857;SDS011;4465;50.904;4.696;2022-08-01T00:03:55;2.35;;;1.65;;
8857;SDS011;4465;50.904;4.696;2022-08-01T00:06:21;7.78;;;1.70;;
8857;SDS011;4465;50.904;4.696;2022-08-01T00:08:49;3.72;;;1.75;;
8857;SDS011;4465;50.904;4.696;2022-08-01T00:11:15;4.55;;;1.85;;
8857;SDS011;4465;50.904;4.696;2022-08-01T00:13:42;4.80;;;1.92;;
8857;SDS011;4465;50.904;4.696;2022-08-01T00:16:08;6.03;;;2.22;;
8857;SDS011;4465;50.904;4.696;2022-08-01T00:18:37;3.78;;;1.98;;
8857;SDS011;4465;50.904;4.696;2022-08-01T00:21:03;6.93;;;1.67;;
8857;SDS011;4465;50.904;4.696;2022-08-01T00:23:30;6.47;;;2.33;;
8857;SDS011;4465;50.904;4.696;2022-08-01T00:25:56;5.60;;;2.33;;
8857;SDS011;4465;50.904;4.696;2022-08-01T00:28:23;4.18;;;2.47;;
8857;SDS011;4465;50.904;4.696;2022-08-01T00:30:49;5.90;;;2.30;;
8857;SDS011;4465;50.904;4.696;2022-08-01T00:33:15;6.55;;;2.25;;
8857;SDS011;4465;50.904;4.696;2022-08-01T00:35:41;5.03;;;2.35;;
8857;SDS011;4465;50.904;4.696;2022-08-01T00:38:07;3.58;;;2.40;;
8857;SDS011;4465;50.904;4.696;2022-08-01T00:40:33;6.90;;;2.30;;
8857;SDS011;4465;50.904;4.696;2022-08-01T00:42:59;5.07;;;2.55;;
8857;SDS011;4465;50.904;4.696;2022-08-01T00:45:25;5.93;;;2.67;;
8857;SDS011;4465;50.904;4.696;2022-08-01T00:47:54;10.88;;;3.17;;
8857;SDS011;4465;50.904;4.696;2022-08-01T00:50:20;6.40;;;2.60;;
8857;SDS011;4465;50.904;4.696;2022-08-01T00:52:49;6.55;;;2.97;;
8857;SDS011;4465;50.904;4.696;2022-08-01T00:55:16;5.55;;;2.42;;
8857;SDS011;4465;50.904;4.696;2022-08-01T00:57:46;5.35;;;2.70;;
8857;SDS011;4465;50.904;4.696;2022-08-01T01:02:42;6.25;;;2.78;;
8857;SDS011;4465;50.904;4.696;2022-08-01T01:05:09;10.45;;;3.67;;
8857;SDS011;4465;50.904;4.696;2022-08-01T01:07:48;6.03;;;3.75;;
8857;SDS011;4465;50.904;4.696;2022-08-01T01:13:13;8.80;;;3.88;;
8857;SDS011;4465;50.904;4.696;2022-08-01T01:15:55;7.90;;;3.90;;
8857;SDS011;4465;50.904;4.696;2022-08-01T01:18:34;7.30;;;3.58;;
8857;SDS011;4465;50.904;4.696;2022-08-01T01:31:50;10.68;;;3.50;;
8857;SDS011;4465;50.904;4.696;2022-08-01T01:34:18;9.98;;;4.03;;
8857;SDS011;4465;50.904;4.696;2022-08-01T01:36:47;7.43;;;3.83;;
8857;SDS011;4465;50.904;4.696;2022-08-01T01:39:15;8.80;;;3.75;;
8857;SDS011;4465;50.904;4.696;2022-08-01T01:44:09;7.65;;;3.80;;
8857;SDS011;4465;50.904;4.696;2022-08-01T01:46:36;8.20;;;3.83;;
8857;SDS011;4465;50.904;4.696;2022-08-01T01:49:06;6.28;;;3.42;;
8857;SDS011;4465;50.904;4.696;2022-08-01T01:51:35;8.27;;;3.92;;
8857;SDS011;4465;50.904;4.696;2022-08-01T01:54:03;8.02;;;3.80;;
8857;SDS011;4465;50.904;4.696;2022-08-01T01:56:32;6.70;;;3.70;;
8857;SDS011;4465;50.904;4.696;2022-08-01T01:59:15;11.15;;;4.00;;
8857;SDS011;4465;50.904;4.696;2022-08-01T02:01:47;9.23;;;3.80;;
8857;SDS011;4465;50.904;4.696;2022-08-01T02:04:16;6.57;;;3.58;;
8857;SDS011;4465;50.904;4.696;2022-08-01T02:06:48;8.05;;;3.45;;
8857;SDS011;4465;50.904;4.696;2022-08-01T02:09:18;7.53;;;4.10;;
8857;SDS011;4465;50.904;4.696;2022-08-01T02:11:47;9.32;;;3.42;;
8857;SDS011;4465;50.904;4.696;2022-08-01T02:14:14;7.60;;;3.60;;
8857;SDS011;4465;50.904;4.696;2022-08-01T02:16:42;7.00;;;3.30;;
8857;SDS011;4465;50.904;4.696;2022-08-01T02:19:13;6.72;;;3.72;;
8857;SDS011;4465;50.904;4.696;2022-08-01T02:27:00;8.75;;;5.20;;
8857;SDS011;4465;50.904;4.696;2022-08-01T02:29:33;9.68;;;5.32;;
8857;SDS011;4465;50.904;4.696;2022-08-01T02:32:06;11.90;;;5.60;;
8857;SDS011;4465;50.904;4.696;2022-08-01T02:34:36;12.05;;;5.57;;
8857;SDS011;4465;50.904;4.696;2022-08-01T02:37:02;11.70;;;5.93;;
8857;SDS011;4465;50.904;4.696;2022-08-01T02:39:29;10.82;;;6.22;;
8857;SDS011;4465;50.904;4.696;2022-08-01T02:41:58;11.05;;;6.50;;
8857;SDS011;4465;50.904;4.696;2022-08-01T02:44:30;11.32;;;6.78;;
8857;SDS011;4465;50.904;4.696;2022-08-01T02:47:01;10.98;;;5.90;;
8857;SDS011;4465;50.904;4.696;2022-08-01T02:49:29;11.55;;;6.45;;
8857;SDS011;4465;50.904;4.696;2022-08-01T02:52:04;11.65;;;6.25;;
8857;SDS011;4465;50.904;4.696;2022-08-01T02:54:37;13.05;;;6.80;;
8857;SDS011;4465;50.904;4.696;2022-08-01T02:57:06;16.27;;;6.93;;
8857;SDS011;4465;50.904;4.696;2022-08-01T02:59:34;12.20;;;6.80;;
8857;SDS011;4465;50.904;4.696;2022-08-01T03:02:05;13.05;;;6.63;;
8857;SDS011;4465;50.904;4.696;2022-08-01T03:04:33;14.93;;;6.97;;
8857;SDS011;4465;50.904;4.696;2022-08-01T03:07:02;11.10;;;6.97;;
8857;SDS011;4465;50.904;4.696;2022-08-01T03:09:32;14.75;;;6.88;;
8857;SDS011;4465;50.904;4.696;2022-08-01T03:12:04;12.65;;;7.35;;
8857;SDS011;4465;50.904;4.696;2022-08-01T03:14:37;13.52;;;6.70;;
8857;SDS011;4465;50.904;4.696;2022-08-01T03:17:05;14.63;;;7.65;;
8857;SDS011;4465;50.904;4.696;2022-08-01T03:19:33;12.80;;;7.05;;
8857;SDS011;4465;50.904;4.696;2022-08-01T03:22:01;17.02;;;7.93;;
8857;SDS011;4465;50.904;4.696;2022-08-01T03:24:31;14.38;;;7.88;;
8857;SDS011;4465;50.904;4.696;2022-08-01T03:27:00;17.63;;;8.30;;
8857;SDS011;4465;50.904;4.696;2022-08-01T03:29:31;21.83;;;9.68;;
8857;SDS011;4465;50.904;4.696;2022-08-01T03:34:28;19.58;;;8.68;;
8857;SDS011;4465;50.904;4.696;2022-08-01T03:37:12;22.40;;;10.15;;
8857;SDS011;4465;50.904;4.696;2022-08-01T03:39:58;20.35;;;9.77;;
8857;SDS011;4465;50.904;4.696;2022-08-01T03:42:32;24.95;;;10.40;;
8857;SDS011;4465;50.904;4.696;2022-08-01T03:45:14;21.40;;;10.70;;
8857;SDS011;4465;50.904;4.696;2022-08-01T03:48:00;24.40;;;10.57;;
8857;SDS011;4465;50.904;4.696;2022-08-01T03:50:29;21.90;;;10.98;;
8857;SDS011;4465;50.904;4.696;2022-08-01T03:53:00;21.90;;;10.52;;
8857;SDS011;4465;50.904;4.696;2022-08-01T03:55:27;21.92;;;10.63;;
8857;SDS011;4465;50.904;4.696;2022-08-01T03:57:55;23.73;;;10.48;;
8857;SDS011;4465;50.904;4.696;2022-08-01T04:02:49;23.70;;;11.63;;
8857;SDS011;4465;50.904;4.696;2022-08-01T04:05:17;28.92;;;11.73;;
8857;SDS011;4465;50.904;4.696;2022-08-01T04:07:47;30.00;;;12.88;;
8857;SDS011;4465;50.904;4.696;2022-08-01T04:10:24;28.65;;;13.15;;
8857;SDS011;4465;50.904;4.696;2022-08-01T04:12:51;26.48;;;11.82;;
8857;SDS011;4465;50.904;4.696;2022-08-01T04:15:19;29.48;;;12.70;;
8857;SDS011;4465;50.904;4.696;2022-08-01T04:17:45;30.40;;;13.75;;
8857;SDS011;4465;50.904;4.696;2022-08-01T04:20:12;31.17;;;13.43;;
8857;SDS011;4465;50.904;4.696;2022-08-01T04:22:39;28.73;;;13.93;;
8857;SDS011;4465;50.904;4.696;2022-08-01T04:25:07;32.55;;;14.07;;
8857;SDS011;4465;50.904;4.696;2022-08-01T04:27:40;33.42;;;14.23;;
8857;SDS011;4465;50.904;4.696;2022-08-01T04:30:14;31.83;;;14.20;;
8857;SDS011;4465;50.904;4.696;2022-08-01T04:32:42;25.83;;;13.35;;
8857;SDS011;4465;50.904;4.696;2022-08-01T04:35:11;29.00;;;13.43;;
8857;SDS011;4465;50.904;4.696;2022-08-01T04:37:42;26.10;;;13.30;;
8857;SDS011;4465;50.904;4.696;2022-08-01T04:40:10;30.55;;;13.60;;
8857;SDS011;4465;50.904;4.696;2022-08-01T04:42:37;23.48;;;12.93;;
8857;SDS011;4465;50.904;4.696;2022-08-01T04:45:04;29.17;;;12.98;;
8857;SDS011;4465;50.904;4.696;2022-08-01T04:47:34;22.50;;;12.65;;
8857;SDS011;4465;50.904;4.696;2022-08-01T04:50:04;24.80;;;12.52;;
8857;SDS011;4465;50.904;4.696;2022-08-01T04:52:36;23.63;;;12.75;;
8857;SDS011;4465;50.904;4.696;2022-08-01T04:55:03;24.88;;;12.10;;
8857;SDS011;4465;50.904;4.696;2022-08-01T04:57:34;23.50;;;12.25;;
8857;SDS011;4465;50.904;4.696;2022-08-01T05:00:02;26.13;;;12.88;;
8857;SDS011;4465;50.904;4.696;2022-08-01T05:02:29;28.43;;;12.33;;
8857;SDS011;4465;50.904;4.696;2022-08-01T05:04:56;23.33;;;12.20;;
8857;SDS011;4465;50.904;4.696;2022-08-01T05:07:22;24.00;;;12.35;;
8857;SDS011;4465;50.904;4.696;2022-08-01T05:09:48;26.65;;;11.38;;
8857;SDS011;4465;50.904;4.696;2022-08-01T05:12:17;21.83;;;12.50;;
8857;SDS011;4465;50.904;4.696;2022-08-01T05:14:44;26.13;;;11.82;;
8857;SDS011;4465;50.904;4.696;2022-08-01T05:17:11;21.45;;;10.75;;
8857;SDS011;4465;50.904;4.696;2022-08-01T05:19:39;25.52;;;12.32;;
8857;SDS011;4465;50.904;4.696;2022-08-01T05:22:06;20.93;;;10.57;;
8857;SDS011;4465;50.904;4.696;2022-08-01T05:24:37;20.48;;;11.15;;
8857;SDS011;4465;50.904;4.696;2022-08-01T05:27:04;21.25;;;10.63;;
8857;SDS011;4465;50.904;4.696;2022-08-01T05:29:31;18.15;;;10.15;;
8857;SDS011;4465;50.904;4.696;2022-08-01T05:31:57;18.60;;;10.90;;
8857;SDS011;4465;50.904;4.696;2022-08-01T05:34:24;20.38;;;10.50;;
8857;SDS011;4465;50.904;4.696;2022-08-01T05:36:50;21.40;;;10.15;;
8857;SDS011;4465;50.904;4.696;2022-08-01T05:39:16;24.05;;;10.90;;
8857;SDS011;4465;50.904;4.696;2022-08-01T05:41:43;19.75;;;10.85;;
8857;SDS011;4465;50.904;4.696;2022-08-01T05:44:09;19.65;;;9.90;;
8857;SDS011;4465;50.904;4.696;2022-08-01T05:46:35;19.02;;;10.35;;
8857;SDS011;4465;50.904;4.696;2022-08-01T05:49:04;22.95;;;10.05;;
8857;SDS011;4465;50.904;4.696;2022-08-01T05:51:31;18.95;;;9.95;;
8857;SDS011;4465;50.904;4.696;2022-08-01T05:54:00;18.55;;;9.75;;
8857;SDS011;4465;50.904;4.696;2022-08-01T05:56:26;20.60;;;9.30;;
8857;SDS011;4465;50.904;4.696;2022-08-01T05:58:52;20.40;;;9.70;;
8857;SDS011;4465;50.904;4.696;2022-08-01T06:01:19;22.65;;;9.18;;
8857;SDS011;4465;50.904;4.696;2022-08-01T06:03:45;15.65;;;9.00;;
8857;SDS011;4465;50.904;4.696;2022-08-01T06:06:12;15.52;;;8.45;;
8857;SDS011;4465;50.904;4.696;2022-08-01T06:08:39;16.88;;;7.82;;
8857;SDS011;4465;50.904;4.696;2022-08-01T06:11:05;21.80;;;8.13;;
8857;SDS011;4465;50.904;4.696;2022-08-01T06:13:31;15.77;;;8.00;;
8857;SDS011;4465;50.904;4.696;2022-08-01T06:15:57;13.32;;;6.90;;
8857;SDS011;4465;50.904;4.696;2022-08-01T06:18:24;20.30;;;7.90;;
8857;SDS011;4465;50.904;4.696;2022-08-01T06:20:50;16.85;;;6.28;;
8857;SDS011;4465;50.904;4.696;2022-08-01T06:23:19;14.32;;;6.78;;
8857;SDS011;4465;50.904;4.696;2022-08-01T06:25:46;12.50;;;6.32;;
8857;SDS011;4465;50.904;4.696;2022-08-01T06:28:12;12.57;;;6.67;;
8857;SDS011;4465;50.904;4.696;2022-08-01T06:30:38;12.88;;;6.40;;
8857;SDS011;4465;50.904;4.696;2022-08-01T06:33:07;14.73;;;6.55;;
8857;SDS011;4465;50.904;4.696;2022-08-01T06:35:33;15.95;;;6.13;;
8857;SDS011;4465;50.904;4.696;2022-08-01T06:38:03;12.25;;;6.10;;
8857;SDS011;4465;50.904;4.696;2022-08-01T06:40:29;11.45;;;6.20;;
8857;SDS011;4465;50.904;4.696;2022-08-01T06:42:55;16.92;;;5.78;;
8857;SDS011;4465;50.904;4.696;2022-08-01T06:45:21;12.85;;;6.20;;
8857;SDS011;4465;50.904;4.696;2022-08-01T06:47:52;12.40;;;5.88;;
8857;SDS011;4465;50.904;4.696;2022-08-01T06:50:18;16.35;;;6.40;;
8857;SDS011;4465;50.904;4.696;2022-08-01T06:52:44;10.82;;;6.10;;
8857;SDS011;4465;50.904;4.696;2022-08-01T06:55:11;12.40;;;5.43;;
8857;SDS011;4465;50.904;4.696;2022-08-01T06:57:44;9.38;;;4.97;;
8857;SDS011;4465;50.904;4.696;2022-08-01T07:00:11;12.45;;;5.82;;
8857;SDS011;4465;50.904;4.696;2022-08-01T07:02:38;13.20;;;5.10;;
8857;SDS011;4465;50.904;4.696;2022-08-01T07:05:04;11.48;;;5.55;;
8857;SDS011;4465;50.904;4.696;2022-08-01T07:07:33;11.45;;;5.63;;
8857;SDS011;4465;50.904;4.696;2022-08-01T07:09:59;9.30;;;5.70;;
8857;SDS011;4465;50.904;4.696;2022-08-01T07:12:25;10.02;;;5.35;;
8857;SDS011;4465;50.904;4.696;2022-08-01T07:14:51;7.57;;;5.15;;
8857;SDS011;4465;50.904;4.696;2022-08-01T07:17:20;11.30;;;5.32;;
8857;SDS011;4465;50.904;4.696;2022-08-01T07:19:46;12.60;;;5.03;;
8857;SDS011;4465;50.904;4.696;2022-08-01T07:22:13;12.48;;;5.32;;
8857;SDS011;4465;50.904;4.696;2022-08-01T07:24:42;11.75;;;5.70;;
8857;SDS011;4465;50.904;4.696;2022-08-01T07:27:08;8.93;;;5.28;;
8857;SDS011;4465;50.904;4.696;2022-08-01T07:29:34;11.00;;;6.30;;
8857;SDS011;4465;50.904;4.696;2022-08-01T07:32:00;8.65;;;5.43;;
8857;SDS011;4465;50.904;4.696;2022-08-01T07:34:28;8.73;;;4.97;;
8857;SDS011;4465;50.904;4.696;2022-08-01T07:36:54;7.70;;;4.97;;
8857;SDS011;4465;50.904;4.696;2022-08-01T07:39:22;7.78;;;5.22;;
8857;SDS011;4465;50.904;4.696;2022-08-01T07:41:48;10.55;;;5.78;;
8857;SDS011;4465;50.904;4.696;2022-08-01T07:44:15;10.57;;;4.95;;
8857;SDS011;4465;50.904;4.696;2022-08-01T07:46:41;11.45;;;5.78;;
8857;SDS011;4465;50.904;4.696;2022-08-01T07:49:07;10.43;;;5.07;;
8857;SDS011;4465;50.904;4.696;2022-08-01T07:51:34;6.80;;;3.65;;
8857;SDS011;4465;50.904;4.696;2022-08-01T07:54:00;6.07;;;3.47;;
8857;SDS011;4465;50.904;4.696;2022-08-01T07:56:26;8.27;;;3.05;;
8857;SDS011;4465;50.904;4.696;2022-08-01T07:58:55;5.28;;;3.17;;
8857;SDS011;4465;50.904;4.696;2022-08-01T08:01:20;5.65;;;3.53;;
8857;SDS011;4465;50.904;4.696;2022-08-01T08:03:47;4.53;;;3.30;;
8857;SDS011;4465;50.904;4.696;2022-08-01T08:06:15;8.30;;;5.20;;
8857;SDS011;4465;50.904;4.696;2022-08-01T08:08:43;7.05;;;4.22;;
8857;SDS011;4465;50.904;4.696;2022-08-01T08:11:09;8.52;;;5.30;;
8857;SDS011;4465;50.904;4.696;2022-08-01T08:13:35;8.20;;;4.75;;
8857;SDS011;4465;50.904;4.696;2022-08-01T08:16:01;8.85;;;4.93;;
8857;SDS011;4465;50.904;4.696;2022-08-01T08:18:27;8.60;;;4.73;;
8857;SDS011;4465;50.904;4.696;2022-08-01T08:20:53;6.05;;;4.57;;
8857;SDS011;4465;50.904;4.696;2022-08-01T08:23:19;8.40;;;4.43;;
8857;SDS011;4465;50.904;4.696;2022-08-01T08:26:04;5.70;;;3.80;;
8857;SDS011;4465;50.904;4.696;2022-08-01T08:28:32;5.38;;;3.60;;
8857;SDS011;4465;50.904;4.696;2022-08-01T08:31:00;4.78;;;3.60;;
8857;SDS011;4465;50.904;4.696;2022-08-01T08:33:26;9.73;;;4.00;;
8857;SDS011;4465;50.904;4.696;2022-08-01T08:35:53;7.97;;;4.00;;
8857;SDS011;4465;50.904;4.696;2022-08-01T08:38:20;13.17;;;4.27;;
8857;SDS011;4465;50.904;4.696;2022-08-01T08:40:48;8.02;;;3.72;;
8857;SDS011;4465;50.904;4.696;2022-08-01T08:43:15;7.35;;;3.88;;
8857;SDS011;4465;50.904;4.696;2022-08-01T08:45:41;6.77;;;3.33;;
8857;SDS011;4465;50.904;4.696;2022-08-01T08:48:11;6.88;;;3.75;;
8857;SDS011;4465;50.904;4.696;2022-08-01T08:50:42;4.35;;;3.00;;
8857;SDS011;4465;50.904;4.696;2022-08-01T08:53:10;9.55;;;3.85;;
8857;SDS011;4465;50.904;4.696;2022-08-01T08:55:43;4.85;;;3.13;;
8857;SDS011;4465;50.904;4.696;2022-08-01T08:58:13;7.07;;;2.90;;
8857;SDS011;4465;50.904;4.696;2022-08-01T09:00:42;26.25;;;6.43;;
8857;SDS011;4465;50.904;4.696;2022-08-01T09:03:08;3.47;;;2.92;;
8857;SDS011;4465;50.904;4.696;2022-08-01T09:05:37;8.88;;;3.40;;
8857;SDS011;4465;50.904;4.696;2022-08-01T09:08:07;7.72;;;3.38;;
8857;SDS011;4465;50.904;4.696;2022-08-01T09:10:34;12.43;;;3.80;;
8857;SDS011;4465;50.904;4.696;2022-08-01T09:13:12;7.10;;;3.83;;
8857;SDS011;4465;50.904;4.696;2022-08-01T09:15:41;4.07;;;3.60;;
8857;SDS011;4465;50.904;4.696;2022-08-01T09:21:14;15.75;;;4.80;;
8857;SDS011;4465;50.904;4.696;2022-08-01T09:23:46;13.13;;;4.30;;
8857;SDS011;4465;50.904;4.696;2022-08-01T09:26:18;12.65;;;3.78;;
8857;SDS011;4465;50.904;4.696;2022-08-01T09:28:46;6.35;;;4.18;;
8857;SDS011;4465;50.904;4.696;2022-08-01T09:31:17;6.43;;;4.15;;
8857;SDS011;4465;50.904;4.696;2022-08-01T09:33:57;4.80;;;4.05;;
8857;SDS011;4465;50.904;4.696;2022-08-01T09:36:46;5.50;;;3.17;;
8857;SDS011;4465;50.904;4.696;2022-08-01T09:39:17;4.93;;;3.30;;
8857;SDS011;4465;50.904;4.696;2022-08-01T09:42:24;6.45;;;3.50;;
8857;SDS011;4465;50.904;4.696;2022-08-01T09:44:50;3.58;;;3.20;;
8857;SDS011;4465;50.904;4.696;2022-08-01T09:47:18;5.72;;;3.05;;
8857;SDS011;4465;50.904;4.696;2022-08-01T09:49:53;5.40;;;2.80;;
8857;SDS011;4465;50.904;4.696;2022-08-01T09:52:26;3.97;;;2.78;;
8857;SDS011;4465;50.904;4.696;2022-08-01T09:57:27;5.15;;;2.63;;
8857;SDS011;4465;50.904;4.696;2022-08-01T09:59:58;5.32;;;3.15;;
8857;SDS011;4465;50.904;4.696;2022-08-01T10:02:35;3.17;;;2.72;;
8857;SDS011;4465;50.904;4.696;2022-08-01T10:05:05;5.95;;;2.78;;
8857;SDS011;4465;50.904;4.696;2022-08-01T10:07:33;4.30;;;2.88;;
8857;SDS011;4465;50.904;4.696;2022-08-01T10:10:14;3.55;;;2.60;;
8857;SDS011;4465;50.904;4.696;2022-08-01T10:12:43;5.32;;;2.85;;
8857;SDS011;4465;50.904;4.696;2022-08-01T10:15:11;5.75;;;2.58;;
8857;SDS011;4465;50.904;4.696;2022-08-01T10:17:41;4.20;;;3.20;;
8857;SDS011;4465;50.904;4.696;2022-08-01T10:20:19;3.60;;;2.60;;
8857;SDS011;4465;50.904;4.696;2022-08-01T10:22:48;5.00;;;2.72;;
8857;SDS011;4465;50.904;4.696;2022-08-01T10:25:17;3.35;;;2.50;;
8857;SDS011;4465;50.904;4.696;2022-08-01T10:27:48;3.40;;;2.40;;
8857;SDS011;4465;50.904;4.696;2022-08-01T10:30:17;2.70;;;1.90;;
8857;SDS011;4465;50.904;4.696;2022-08-01T10:32:43;4.78;;;2.30;;
8857;SDS011;4465;50.904;4.696;2022-08-01T10:35:12;4.03;;;2.72;;
8857;SDS011;4465;50.904;4.696;2022-08-01T10:37:42;2.70;;;2.10;;
8857;SDS011;4465;50.904;4.696;2022-08-01T10:40:14;8.75;;;2.50;;
8857;SDS011;4465;50.904;4.696;2022-08-01T10:42:41;6.95;;;2.70;;
8857;SDS011;4465;50.904;4.696;2022-08-01T10:45:09;9.15;;;3.90;;
8857;SDS011;4465;50.904;4.696;2022-08-01T10:47:48;3.90;;;2.83;;
8857;SDS011;4465;50.904;4.696;2022-08-01T10:50:31;4.55;;;2.88;;
8857;SDS011;4465;50.904;4.696;2022-08-01T10:53:10;4.43;;;2.50;;
8857;SDS011;4465;50.904;4.696;2022-08-01T10:55:51;3.10;;;2.53;;
8857;SDS011;4465;50.904;4.696;2022-08-01T11:03:44;4.25;;;2.65;;
8857;SDS011;4465;50.904;4.696;2022-08-01T11:09:02;2.72;;;2.13;;
8857;SDS011;4465;50.904;4.696;2022-08-01T11:11:30;4.03;;;1.73;;
8857;SDS011;4465;50.904;4.696;2022-08-01T11:16:27;2.65;;;1.80;;
8857;SDS011;4465;50.904;4.696;2022-08-01T11:18:54;2.72;;;2.10;;
8857;SDS011;4465;50.904;4.696;2022-08-01T11:21:39;3.30;;;2.22;;
8857;SDS011;4465;50.904;4.696;2022-08-01T11:27:22;2.78;;;2.17;;
8857;SDS011;4465;50.904;4.696;2022-08-01T11:36:16;4.20;;;2.00;;
8857;SDS011;4465;50.904;4.696;2022-08-01T11:38:37;9.48;;;1.98;;
8857;SDS011;4465;50.904;4.696;2022-08-01T11:41:33;3.00;;;1.70;;
8857;SDS011;4465;50.904;4.696;2022-08-01T11:44:02;2.85;;;1.90;;
8857;SDS011;4465;50.904;4.696;2022-08-01T11:52:19;4.07;;;1.73;;
8857;SDS011;4465;50.904;4.696;2022-08-01T11:57:32;3.03;;;1.50;;
8857;SDS011;4465;50.904;4.696;2022-08-01T12:00:04;2.60;;;1.50;;
8857;SDS011;4465;50.904;4.696;2022-08-01T12:02:41;4.43;;;1.52;;
8857;SDS011;4465;50.904;4.696;2022-08-01T12:05:08;4.83;;;1.40;;
8857;SDS011;4465;50.904;4.696;2022-08-01T12:07:39;3.78;;;1.05;;
8857;SDS011;4465;50.904;4.696;2022-08-01T12:10:09;2.92;;;1.00;;
8857;SDS011;4465;50.904;4.696;2022-08-01T12:12:40;1.35;;;1.00;;
8857;SDS011;4465;50.904;4.696;2022-08-01T12:15:21;1.80;;;0.80;;
8857;SDS011;4465;50.904;4.696;2022-08-01T12:17:50;7.88;;;0.90;;
8857;SDS011;4465;50.904;4.696;2022-08-01T12:20:24;2.42;;;0.90;;
8857;SDS011;4465;50.904;4.696;2022-08-01T12:22:53;3.42;;;1.20;;
8857;SDS011;4465;50.904;4.696;2022-08-01T12:25:21;1.13;;;0.88;;
8857;SDS011;4465;50.904;4.696;2022-08-01T12:27:47;2.37;;;0.93;;
8857;SDS011;4465;50.904;4.696;2022-08-01T12:32:45;7.22;;;0.90;;
8857;SDS011;4465;50.904;4.696;2022-08-01T12:35:13;1.50;;;0.77;;
8857;SDS011;4465;50.904;4.696;2022-08-01T12:37:42;1.88;;;0.77;;
8857;SDS011;4465;50.904;4.696;2022-08-01T12:40:14;3.00;;;1.10;;
8857;SDS011;4465;50.904;4.696;2022-08-01T12:42:50;2.63;;;1.00;;
8857;SDS011;4465;50.904;4.696;2022-08-01T12:45:18;7.25;;;1.33;;
8857;SDS011;4465;50.904;4.696;2022-08-01T12:47:46;4.88;;;1.00;;
8857;SDS011;4465;50.904;4.696;2022-08-01T12:50:17;4.07;;;1.00;;
8857;SDS011;4465;50.904;4.696;2022-08-01T12:52:47;3.33;;;1.08;;
8857;SDS011;4465;50.904;4.696;2022-08-01T12:55:21;3.50;;;0.85;;
8857;SDS011;4465;50.904;4.696;2022-08-01T13:00:29;1.42;;;0.77;;
8857;SDS011;4465;50.904;4.696;2022-08-01T13:03:03;4.25;;;0.80;;
8857;SDS011;4465;50.904;4.696;2022-08-01T13:08:41;4.13;;;1.00;;
8857;SDS011;4465;50.904;4.696;2022-08-01T13:11:10;3.08;;;0.75;;
8857;SDS011;4465;50.904;4.696;2022-08-01T13:13:40;3.13;;;0.75;;
8857;SDS011;4465;50.904;4.696;2022-08-01T13:16:10;3.80;;;0.98;;
8857;SDS011;4465;50.904;4.696;2022-08-01T13:18:37;1.20;;;0.70;;
8857;SDS011;4465;50.904;4.696;2022-08-01T13:21:09;1.73;;;0.70;;
8857;SDS011;4465;50.904;4.696;2022-08-01T13:23:41;1.35;;;0.77;;
8857;SDS011;4465;50.904;4.696;2022-08-01T13:26:47;3.00;;;0.90;;
8857;SDS011;4465;50.904;4.696;2022-08-01T13:29:20;1.23;;;0.80;;
8857;SDS011;4465;50.904;4.696;2022-08-01T13:32:01;3.42;;;0.90;;
8857;SDS011;4465;50.904;4.696;2022-08-01T13:34:39;1.58;;;0.93;;
8857;SDS011;4465;50.904;4.696;2022-08-01T13:37:05;2.53;;;0.70;;
8857;SDS011;4465;50.904;4.696;2022-08-01T13:39:30;1.17;;;0.70;;
8857;SDS011;4465;50.904;4.696;2022-08-01T13:42:06;1.20;;;0.80;;
8857;SDS011;4465;50.904;4.696;2022-08-01T13:44:33;3.28;;;1.00;;
8857;SDS011;4465;50.904;4.696;2022-08-01T13:47:00;1.58;;;0.80;;
8857;SDS011;4465;50.904;4.696;2022-08-01T13:49:30;1.92;;;1.08;;
8857;SDS011;4465;50.904;4.696;2022-08-01T13:51:57;4.20;;;1.07;;
8857;SDS011;4465;50.904;4.696;2022-08-01T13:54:23;4.18;;;1.10;;
8857;SDS011;4465;50.904;4.696;2022-08-01T13:56:50;1.40;;;0.70;;
8857;SDS011;4465;50.904;4.696;2022-08-01T13:59:19;2.50;;;0.90;;
8857;SDS011;4465;50.904;4.696;2022-08-01T14:01:45;3.13;;;1.13;;
8857;SDS011;4465;50.904;4.696;2022-08-01T14:04:12;3.50;;;0.87;;
8857;SDS011;4465;50.904;4.696;2022-08-01T14:06:40;2.05;;;1.00;;
8857;SDS011;4465;50.904;4.696;2022-08-01T14:09:07;5.28;;;0.70;;
8857;SDS011;4465;50.904;4.696;2022-08-01T14:11:36;1.92;;;0.90;;
8857;SDS011;4465;50.904;4.696;2022-08-01T14:14:02;3.45;;;1.00;;
8857;SDS011;4465;50.904;4.696;2022-08-01T14:16:29;4.25;;;1.13;;
8857;SDS011;4465;50.904;4.696;2022-08-01T14:18:57;4.13;;;0.95;;
8857;SDS011;4465;50.904;4.696;2022-08-01T14:21:24;1.90;;;0.80;;
8857;SDS011;4465;50.904;4.696;2022-08-01T14:23:50;4.37;;;1.20;;
8857;SDS011;4465;50.904;4.696;2022-08-01T14:26:16;3.80;;;0.80;;
8857;SDS011;4465;50.904;4.696;2022-08-01T14:28:43;5.80;;;0.80;;
8857;SDS011;4465;50.904;4.696;2022-08-01T14:31:09;5.40;;;1.10;;
8857;SDS011;4465;50.904;4.696;2022-08-01T14:33:35;2.30;;;1.00;;
8857;SDS011;4465;50.904;4.696;2022-08-01T14:36:02;3.25;;;1.20;;
8857;SDS011;4465;50.904;4.696;2022-08-01T14:40:58;3.97;;;1.05;;
8857;SDS011;4465;50.904;4.696;2022-08-01T14:43:28;3.92;;;1.00;;
8857;SDS011;4465;50.904;4.696;2022-08-01T14:45:57;2.33;;;1.20;;
8857;SDS011;4465;50.904;4.696;2022-08-01T14:48:24;4.07;;;1.17;;
8857;SDS011;4465;50.904;4.696;2022-08-01T14:50:50;1.73;;;0.93;;
8857;SDS011;4465;50.904;4.696;2022-08-01T14:53:16;2.37;;;0.80;;
8857;SDS011;4465;50.904;4.696;2022-08-01T14:55:45;1.80;;;1.10;;
8857;SDS011;4465;50.904;4.696;2022-08-01T14:58:14;2.45;;;0.88;;
8857;SDS011;4465;50.904;4.696;2022-08-01T15:00:40;2.42;;;1.20;;
8857;SDS011;4465;50.904;4.696;2022-08-01T15:03:06;1.38;;;0.82;;
8857;SDS011;4465;50.904;4.696;2022-08-01T15:05:32;5.43;;;1.02;;
8857;SDS011;4465;50.904;4.696;2022-08-01T15:08:02;4.60;;;0.90;;
8857;SDS011;4465;50.904;4.696;2022-08-01T15:10:28;2.30;;;0.90;;
8857;SDS011;4465;50.904;4.696;2022-08-01T15:12:55;2.10;;;1.10;;
8857;SDS011;4465;50.904;4.696;2022-08-01T15:15:22;2.95;;;0.95;;
8857;SDS011;4465;50.904;4.696;2022-08-01T15:17:50;2.78;;;0.80;;
8857;SDS011;4465;50.904;4.696;2022-08-01T15:20:18;4.20;;;1.20;;
8857;SDS011;4465;50.904;4.696;2022-08-01T15:22:46;1.83;;;0.95;;
8857;SDS011;4465;50.904;4.696;2022-08-01T15:25:13;2.45;;;0.90;;
8857;SDS011;4465;50.904;4.696;2022-08-01T15:27:39;2.78;;;1.02;;
8857;SDS011;4465;50.904;4.696;2022-08-01T15:30:05;1.13;;;0.80;;
8857;SDS011;4465;50.904;4.696;2022-08-01T15:32:31;2.75;;;0.90;;
8857;SDS011;4465;50.904;4.696;2022-08-01T15:34:57;4.13;;;1.02;;
8857;SDS011;4465;50.904;4.696;2022-08-01T15:37:23;1.50;;;0.73;;
8857;SDS011;4465;50.904;4.696;2022-08-01T15:39:52;2.33;;;0.93;;
8857;SDS011;4465;50.904;4.696;2022-08-01T15:42:18;3.85;;;1.15;;
8857;SDS011;4465;50.904;4.696;2022-08-01T15:44:45;0.90;;;0.70;;
8857;SDS011;4465;50.904;4.696;2022-08-01T15:47:11;3.13;;;1.02;;
8857;SDS011;4465;50.904;4.696;2022-08-01T15:49:37;1.77;;;0.80;;
8857;SDS011;4465;50.904;4.696;2022-08-01T15:52:04;1.00;;;0.70;;
8857;SDS011;4465;50.904;4.696;2022-08-01T15:54:32;1.77;;;0.65;;
8857;SDS011;4465;50.904;4.696;2022-08-01T15:57:01;1.38;;;0.85;;
8857;SDS011;4465;50.904;4.696;2022-08-01T15:59:30;3.35;;;0.90;;
8857;SDS011;4465;50.904;4.696;2022-08-01T16:01:56;2.23;;;0.90;;
8857;SDS011;4465;50.904;4.696;2022-08-01T16:04:23;2.60;;;0.90;;
8857;SDS011;4465;50.904;4.696;2022-08-01T16:06:49;1.60;;;0.95;;
8857;SDS011;4465;50.904;4.696;2022-08-01T16:09:17;3.40;;;0.95;;
8857;SDS011;4465;50.904;4.696;2022-08-01T16:11:43;7.00;;;1.02;;
8857;SDS011;4465;50.904;4.696;2022-08-01T16:14:10;3.85;;;1.02;;
8857;SDS011;4465;50.904;4.696;2022-08-01T16:16:36;1.75;;;0.93;;
8857;SDS011;4465;50.904;4.696;2022-08-01T16:19:02;2.63;;;1.08;;
8857;SDS011;4465;50.904;4.696;2022-08-01T16:21:29;1.48;;;0.90;;
8857;SDS011;4465;50.904;4.696;2022-08-01T16:23:56;3.72;;;1.10;;
8857;SDS011;4465;50.904;4.696;2022-08-01T16:26:22;1.90;;;0.82;;
8857;SDS011;4465;50.904;4.696;2022-08-01T16:28:51;6.45;;;1.23;;
8857;SDS011;4465;50.904;4.696;2022-08-01T16:31:18;2.08;;;1.23;;
8857;SDS011;4465;50.904;4.696;2022-08-01T16:33:45;1.42;;;0.80;;